Andale, Kansas
Current Conditions -  °F | °C
As of 1:53 PM on Thursday 30 Oct 2014 (Local Time) from KICT Reporting Station
Few Clouds Few Clouds  
Wind Chill: 23°   Ceiling: Unl
Heat Index: 23°   Visibility: 10mi
Dew Point:   Wind: 24mph
Humidity: 26%   Direction: 330°NNW
Pressure: 30.13"   Gusts: 30mph
Location:  37.79°N, 97.63°W
Report Text: KICT 301853Z 33021G26KT 10SM FEW050 23/02 A3013 RMK AO2 PK WND 33034/1812 SLP196 T02280022
Loading
Personal Weather Stations






























Interactive Weather Map
Tropical Storm Tracking
New forecast layout! Learn more

10-Day Weather Forecast

Advertisements
Track Severe Weather on mobile